Commercial Point, Ohio
Current Conditions -  °F | °C
As of 4:35 AM on Monday 24 Nov 2014 (Local Time) from KLCK Reporting Station
Light Rain Light Rain  
Wind Chill: 57°   Ceiling: 2300
Heat Index: 57°   Visibility: 10mi
Dew Point: 55°   Wind: 14mph
Humidity: 92%   Direction: 200°SSW
Pressure: 29.36"   Gusts: NA
Location:  39.77°N, 83.06°W
Report Text: KLCK 240935Z AUTO 20012KT 10SM -RA BKN023 OVC031 14/13 A2936 RMK AO2 T01380125
Loading
Personal Weather Stations






























Interactive Weather Map New forecast layout! Learn more

10-Day Weather Forecast

Advertisements
Track Severe Weather on mobile